createdAt,value
2022-07-30T00:01:17.270Z,9.50
2022-07-30T00:03:44.663Z,10.77
2022-07-30T00:06:11.842Z,7.27
2022-07-30T00:08:38.990Z,13.60
2022-07-30T00:11:06.121Z,11.00
2022-07-30T00:13:33.266Z,10.33
2022-07-30T00:16:00.402Z,8.40
2022-07-30T00:18:28.969Z,8.60
2022-07-30T00:20:56.486Z,12.67
2022-07-30T00:23:23.651Z,9.03
2022-07-30T00:25:50.877Z,8.23
2022-07-30T00:28:17.994Z,10.43
2022-07-30T00:30:45.187Z,8.30
2022-07-30T00:33:12.367Z,7.70
2022-07-30T00:35:40.859Z,13.33
2022-07-30T00:38:07.988Z,8.50
2022-07-30T00:40:35.165Z,10.87
2022-07-30T00:43:02.306Z,11.33
2022-07-30T00:45:29.527Z,10.50
2022-07-30T00:47:56.701Z,13.50
2022-07-30T00:50:23.936Z,10.60
2022-07-30T00:52:52.549Z,10.23
2022-07-30T00:55:19.840Z,8.60
2022-07-30T00:57:47.090Z,10.83
2022-07-30T01:00:15.538Z,17.70
2022-07-30T01:02:42.665Z,11.23
2022-07-30T01:05:10.363Z,9.30
2022-07-30T01:07:37.604Z,9.13
2022-07-30T01:10:06.670Z,10.47
2022-07-30T01:12:34.385Z,14.30
2022-07-30T01:15:03.214Z,12.60
2022-07-30T01:17:30.389Z,12.10
2022-07-30T01:19:59.674Z,9.20
2022-07-30T01:22:38.376Z,12.50
2022-07-30T01:25:10.728Z,14.60
2022-07-30T01:27:42.060Z,11.70
2022-07-30T01:30:11.087Z,11.73
2022-07-30T01:32:40.828Z,16.83
2022-07-30T01:35:09.635Z,11.67
2022-07-30T01:37:37.641Z,18.73
2022-07-30T01:40:05.476Z,15.37
2022-07-30T01:42:33.564Z,12.80
2022-07-30T01:45:03.513Z,17.23
2022-07-30T01:47:33.770Z,16.03
2022-07-30T01:50:02.380Z,11.33
2022-07-30T01:52:29.714Z,12.60
2022-07-30T01:54:57.494Z,12.27
2022-07-30T01:57:26.510Z,10.27
2022-07-30T01:59:58.344Z,13.60
2022-07-30T02:02:27.591Z,15.13
2022-07-30T02:04:54.709Z,11.73
2022-07-30T02:07:24.327Z,13.70
2022-07-30T02:09:54.385Z,13.03
2022-07-30T02:12:25.550Z,11.70
2022-07-30T02:14:54.276Z,12.30
2022-07-30T02:17:23.123Z,22.80
2022-07-30T02:19:59.631Z,11.67
2022-07-30T02:22:28.790Z,10.43
2022-07-30T02:25:01.066Z,10.33
2022-07-30T02:27:31.453Z,13.10
2022-07-30T02:30:00.809Z,11.70
2022-07-30T02:32:31.168Z,10.60
2022-07-30T02:35:01.099Z,13.33
2022-07-30T02:37:43.986Z,12.70
2022-07-30T02:40:14.377Z,12.93
2022-07-30T02:42:42.677Z,14.30
2022-07-30T02:45:11.264Z,17.07
2022-07-30T02:47:39.025Z,12.37
2022-07-30T02:50:09.555Z,12.07
2022-07-30T02:52:39.099Z,19.20
2022-07-30T02:55:07.398Z,15.80
2022-07-30T02:57:34.788Z,12.80
2022-07-30T03:00:02.446Z,14.80
2022-07-30T03:02:31.626Z,16.07
2022-07-30T03:04:59.565Z,11.17
2022-07-30T03:07:28.229Z,16.40
2022-07-30T03:09:56.610Z,14.23
2022-07-30T03:12:26.508Z,19.53
2022-07-30T03:14:53.701Z,21.67
2022-07-30T03:17:22.930Z,14.13
2022-07-30T03:19:50.980Z,17.97
2022-07-30T03:22:18.963Z,18.57
2022-07-30T03:24:48.177Z,15.07
2022-07-30T03:27:16.809Z,16.67
2022-07-30T03:29:44.533Z,13.27
2022-07-30T03:32:13.808Z,15.73
2022-07-30T03:34:42.415Z,12.13
2022-07-30T03:37:11.299Z,14.00
2022-07-30T03:39:39.710Z,15.70
2022-07-30T03:42:08.670Z,14.10
2022-07-30T03:44:36.882Z,17.43
2022-07-30T03:47:06.140Z,21.50
2022-07-30T03:49:39.085Z,18.50
2022-07-30T03:52:06.401Z,18.60
2022-07-30T03:54:35.675Z,16.73
2022-07-30T03:57:36.262Z,17.10
2022-07-30T04:00:04.467Z,14.70
2022-07-30T04:02:43.058Z,21.60
2022-07-30T04:05:28.801Z,18.63
2022-07-30T04:08:08.528Z,17.77
2022-07-30T04:10:35.898Z,19.50
2022-07-30T04:13:24.368Z,16.73
2022-07-30T04:16:05.008Z,18.47
2022-07-30T04:18:45.038Z,19.03
2022-07-30T04:21:16.122Z,18.70
2022-07-30T04:24:04.445Z,16.17
2022-07-30T04:26:34.299Z,20.33
2022-07-30T04:29:04.609Z,16.90
2022-07-30T04:31:32.219Z,18.60
2022-07-30T04:34:27.736Z,22.10
2022-07-30T04:36:55.058Z,16.67
2022-07-30T04:39:22.220Z,18.47
2022-07-30T04:41:50.227Z,17.40
2022-07-30T04:44:38.130Z,18.30
2022-07-30T04:47:43.648Z,18.70
2022-07-30T04:50:27.015Z,19.60
2022-07-30T04:52:55.886Z,20.00
2022-07-30T04:55:28.037Z,14.60
2022-07-30T04:57:57.202Z,16.53
2022-07-30T05:00:25.895Z,16.57
2022-07-30T05:02:54.030Z,23.73
2022-07-30T05:05:22.256Z,20.43
2022-07-30T05:07:49.704Z,19.40
2022-07-30T05:10:18.455Z,19.07
2022-07-30T05:12:45.612Z,15.73
2022-07-30T05:15:13.397Z,17.73
2022-07-30T05:17:42.075Z,24.10
2022-07-30T05:20:10.585Z,19.43
2022-07-30T05:23:07.251Z,22.90
2022-07-30T05:25:34.494Z,20.63
2022-07-30T05:28:14.525Z,16.63
2022-07-30T05:30:44.465Z,17.00
2022-07-30T05:33:17.815Z,19.20
2022-07-30T05:35:45.191Z,25.93
2022-07-30T05:38:13.276Z,26.70
2022-07-30T05:40:55.467Z,22.37
2022-07-30T05:43:55.827Z,20.20
2022-07-30T05:46:24.007Z,21.90
2022-07-30T05:48:52.967Z,25.60
2022-07-30T05:51:20.221Z,20.40
2022-07-30T05:53:47.495Z,20.23
2022-07-30T05:56:33.009Z,20.23
2022-07-30T05:59:10.141Z,23.00
2022-07-30T06:02:00.342Z,21.70
2022-07-30T06:04:35.997Z,24.67
2022-07-30T06:07:05.529Z,24.50
2022-07-30T06:09:36.979Z,22.50
2022-07-30T06:12:05.558Z,26.20
2022-07-30T06:14:33.133Z,27.27
2022-07-30T06:17:00.961Z,31.80
2022-07-30T06:19:40.362Z,33.93
2022-07-30T06:22:07.616Z,35.13
2022-07-30T06:24:41.806Z,30.30
2022-07-30T06:27:17.828Z,41.20
2022-07-30T06:29:45.235Z,32.90
2022-07-30T06:32:12.625Z,40.17
2022-07-30T06:34:41.340Z,39.97
2022-07-30T06:37:08.722Z,33.20
2022-07-30T06:39:56.942Z,33.27
2022-07-30T06:42:41.160Z,33.97
2022-07-30T06:45:26.865Z,29.43
2022-07-30T06:48:13.844Z,40.23
2022-07-30T06:50:42.891Z,30.57
2022-07-30T06:53:10.738Z,29.57
2022-07-30T06:56:00.177Z,27.00
2022-07-30T06:58:34.873Z,31.97
2022-07-30T07:01:22.024Z,25.90
2022-07-30T07:03:49.225Z,27.23
2022-07-30T07:06:17.750Z,28.87
2022-07-30T07:08:44.916Z,26.80
2022-07-30T07:11:15.134Z,26.30
2022-07-30T07:13:51.998Z,28.63
2022-07-30T07:16:27.367Z,24.70
2022-07-30T07:18:56.741Z,27.63
2022-07-30T07:21:25.504Z,23.37
2022-07-30T07:23:54.822Z,25.40
2022-07-30T07:26:44.866Z,24.57
2022-07-30T07:29:12.231Z,22.37
2022-07-30T07:32:05.418Z,24.23
2022-07-30T07:34:27.379Z,24.83
2022-07-30T07:36:55.896Z,21.53
2022-07-30T07:39:23.799Z,22.77
2022-07-30T07:41:51.294Z,23.17
2022-07-30T07:44:23.022Z,23.30
2022-07-30T07:46:50.246Z,21.53
2022-07-30T07:49:17.516Z,17.03
2022-07-30T07:51:48.785Z,18.10
2022-07-30T07:54:22.462Z,23.00
2022-07-30T07:56:50.490Z,18.00
2022-07-30T07:59:18.027Z,21.10
2022-07-30T08:01:46.272Z,17.63
2022-07-30T08:04:31.997Z,20.83
2022-07-30T08:07:27.974Z,14.40
2022-07-30T08:10:14.799Z,16.02
2022-07-30T08:13:00.546Z,18.45
2022-07-30T08:15:56.675Z,16.38
2022-07-30T08:18:47.054Z,16.40
2022-07-30T08:21:21.871Z,13.60
2022-07-30T08:23:49.026Z,9.68
2022-07-30T08:26:17.658Z,13.45
2022-07-30T08:28:44.781Z,9.38
2022-07-30T08:31:12.658Z,11.20
2022-07-30T08:33:39.808Z,13.60
2022-07-30T08:36:09.457Z,13.10
2022-07-30T08:38:37.887Z,8.82
2022-07-30T08:41:05.521Z,15.23
2022-07-30T08:43:35.847Z,14.02
2022-07-30T08:46:05.049Z,8.85
2022-07-30T08:49:09.064Z,10.38
2022-07-30T08:51:38.197Z,9.68
2022-07-30T08:54:21.505Z,8.68
2022-07-30T08:56:49.428Z,10.15
2022-07-30T08:59:18.782Z,11.52
2022-07-30T09:01:46.028Z,9.35
2022-07-30T09:04:13.147Z,11.73
2022-07-30T09:06:41.308Z,11.23
2022-07-30T09:09:10.284Z,11.77
2022-07-30T09:11:37.466Z,7.25
2022-07-30T09:14:08.781Z,11.75
2022-07-30T09:16:37.528Z,11.63
2022-07-30T09:19:12.646Z,8.00
2022-07-30T09:21:40.186Z,6.90
2022-07-30T09:24:41.912Z,8.27
2022-07-30T09:27:48.418Z,7.95
2022-07-30T09:30:45.457Z,7.35
2022-07-30T09:33:40.283Z,5.80
2022-07-30T09:36:31.989Z,11.05
2022-07-30T09:39:28.710Z,7.97
2022-07-30T09:42:23.482Z,7.65
2022-07-30T09:44:52.697Z,9.00
2022-07-30T09:47:30.597Z,10.60
2022-07-30T09:52:52.764Z,14.52
2022-07-30T09:55:31.807Z,8.70
2022-07-30T09:58:01.531Z,7.93
2022-07-30T10:00:30.306Z,5.43
2022-07-30T10:03:21.787Z,5.63
2022-07-30T10:06:35.750Z,9.20
2022-07-30T10:09:24.800Z,5.43
2022-07-30T10:11:54.985Z,5.72
2022-07-30T10:14:30.753Z,5.13
2022-07-30T10:17:00.177Z,6.95
2022-07-30T10:19:40.275Z,6.88
2022-07-30T10:22:25.264Z,8.20
2022-07-30T10:25:16.303Z,7.53
2022-07-30T10:28:03.189Z,8.05
2022-07-30T10:30:31.843Z,7.63
2022-07-30T10:33:01.444Z,6.78
2022-07-30T10:35:34.297Z,6.72
2022-07-30T10:38:07.941Z,5.38
2022-07-30T10:40:39.556Z,4.18
2022-07-30T10:43:22.497Z,7.45
2022-07-30T10:45:56.142Z,2.92
2022-07-30T10:48:23.770Z,3.65
2022-07-30T10:50:52.201Z,3.97
2022-07-30T10:53:37.312Z,12.10
2022-07-30T10:56:11.536Z,4.30
2022-07-30T10:58:53.573Z,4.15
2022-07-30T11:01:23.071Z,5.82
2022-07-30T11:04:05.103Z,4.38
2022-07-30T11:06:34.309Z,6.70
2022-07-30T11:09:22.994Z,5.32
2022-07-30T11:12:14.307Z,4.75
2022-07-30T11:15:07.852Z,4.35
2022-07-30T11:17:58.685Z,7.43
2022-07-30T11:20:26.703Z,5.22
2022-07-30T11:22:53.938Z,4.22
2022-07-30T11:25:51.658Z,4.65
2022-07-30T11:28:37.016Z,7.60
2022-07-30T11:31:37.046Z,3.25
2022-07-30T11:34:30.567Z,3.92
2022-07-30T11:37:18.864Z,3.67
2022-07-30T11:40:09.045Z,6.85
2022-07-30T11:42:36.986Z,3.55
2022-07-30T11:45:26.383Z,6.20
2022-07-30T11:47:54.225Z,5.47
2022-07-30T11:50:23.915Z,6.72
2022-07-30T11:52:51.296Z,3.63
2022-07-30T11:55:24.710Z,2.90
2022-07-30T11:57:52.007Z,4.23
2022-07-30T12:00:19.519Z,5.47
2022-07-30T12:02:47.030Z,4.33
2022-07-30T12:05:14.195Z,4.70
2022-07-30T12:07:42.803Z,4.20
2022-07-30T12:10:16.606Z,6.20
2022-07-30T12:12:53.018Z,5.30
2022-07-30T12:15:30.923Z,4.10
2022-07-30T12:18:17.559Z,8.77
2022-07-30T12:20:53.801Z,5.37
2022-07-30T12:23:22.315Z,5.10
2022-07-30T12:25:51.104Z,5.43
2022-07-30T12:28:22.733Z,3.13
2022-07-30T12:30:49.904Z,4.87
2022-07-30T12:33:17.122Z,4.17
2022-07-30T12:35:48.487Z,5.40
2022-07-30T12:38:15.987Z,3.37
2022-07-30T12:40:55.163Z,5.87
2022-07-30T12:43:40.785Z,3.00
2022-07-30T12:46:10.777Z,3.00
2022-07-30T12:48:49.562Z,3.90
2022-07-30T12:51:17.082Z,6.27
2022-07-30T12:53:44.419Z,7.80
2022-07-30T12:56:13.586Z,5.00
2022-07-30T12:58:40.819Z,2.80
2022-07-30T13:01:08.895Z,5.83
2022-07-30T13:03:36.200Z,5.57
2022-07-30T13:06:11.840Z,3.27
2022-07-30T13:08:45.654Z,5.00
2022-07-30T13:11:14.547Z,2.57
2022-07-30T13:13:41.713Z,2.60
2022-07-30T13:16:08.993Z,3.03
2022-07-30T13:18:37.106Z,6.70
2022-07-30T13:21:05.030Z,3.03
2022-07-30T13:23:32.174Z,3.40
2022-07-30T13:25:59.304Z,3.23
2022-07-30T13:28:28.015Z,6.90
2022-07-30T13:30:56.686Z,2.37
2022-07-30T13:33:24.460Z,2.53
2022-07-30T13:35:51.618Z,4.77
2022-07-30T13:38:18.817Z,2.93
2022-07-30T13:40:46.042Z,3.33
2022-07-30T13:43:13.160Z,2.40
2022-07-30T13:45:41.673Z,3.10
2022-07-30T13:48:08.840Z,2.30
2022-07-30T13:50:35.984Z,5.20
2022-07-30T13:53:03.195Z,3.20
2022-07-30T13:55:30.375Z,3.57
2022-07-30T13:57:57.618Z,2.93
2022-07-30T14:00:25.043Z,2.63
2022-07-30T14:02:53.532Z,5.53
2022-07-30T14:05:20.660Z,3.83
2022-07-30T14:07:47.811Z,4.30
2022-07-30T14:10:14.978Z,3.40
2022-07-30T14:12:42.128Z,3.10
2022-07-30T14:15:09.790Z,5.10
2022-07-30T14:17:36.926Z,2.03
2022-07-30T14:20:06.226Z,3.60
2022-07-30T14:22:33.378Z,5.00
2022-07-30T14:25:00.491Z,1.93
2022-07-30T14:27:27.639Z,5.10
2022-07-30T14:29:54.762Z,2.07
2022-07-30T14:32:23.466Z,3.30
2022-07-30T14:34:50.756Z,2.90
2022-07-30T14:37:19.267Z,3.03
2022-07-30T14:39:46.445Z,3.33
2022-07-30T14:42:13.545Z,2.10
2022-07-30T14:44:40.700Z,5.20
2022-07-30T14:47:08.310Z,1.63
2022-07-30T14:49:35.982Z,2.40
2022-07-30T14:52:03.167Z,2.10
2022-07-30T14:54:31.637Z,1.70
2022-07-30T14:56:58.923Z,5.57
2022-07-30T14:59:26.194Z,2.33
2022-07-30T15:01:53.403Z,4.80
2022-07-30T15:04:20.628Z,1.90
2022-07-30T15:06:47.755Z,3.33
2022-07-30T15:09:14.973Z,3.07
2022-07-30T15:12:08.732Z,1.73
2022-07-30T15:14:30.597Z,3.07
2022-07-30T15:17:03.454Z,1.83
2022-07-30T15:19:31.295Z,2.10
2022-07-30T15:21:58.449Z,2.47
2022-07-30T15:24:26.339Z,5.50
2022-07-30T15:26:55.478Z,2.90
2022-07-30T15:29:22.810Z,4.00
2022-07-30T15:31:49.957Z,2.80
2022-07-30T15:34:17.161Z,4.40
2022-07-30T15:36:44.321Z,4.90
2022-07-30T15:39:11.569Z,3.77
2022-07-30T15:41:38.756Z,1.90
2022-07-30T15:44:07.264Z,2.33
2022-07-30T15:46:34.381Z,5.03
2022-07-30T15:49:01.591Z,4.83
2022-07-30T15:51:28.825Z,3.93
2022-07-30T15:53:55.969Z,1.83
2022-07-30T15:56:23.067Z,5.80
2022-07-30T15:58:50.271Z,3.00
2022-07-30T16:01:18.827Z,4.67
2022-07-30T16:03:45.987Z,3.77
2022-07-30T16:06:13.148Z,1.57
2022-07-30T16:08:40.298Z,6.37
2022-07-30T16:11:07.454Z,3.13
2022-07-30T16:13:38.055Z,2.23
2022-07-30T16:16:05.730Z,2.47
2022-07-30T16:18:34.195Z,3.30
2022-07-30T16:21:01.476Z,4.50
2022-07-30T16:23:36.577Z,4.30
2022-07-30T16:26:04.275Z,2.40
2022-07-30T16:28:31.424Z,9.93
2022-07-30T16:30:58.888Z,2.13
2022-07-30T16:33:26.119Z,2.90
2022-07-30T16:35:54.611Z,2.13
2022-07-30T16:38:22.141Z,3.73
2022-07-30T16:40:49.341Z,2.90
2022-07-30T16:43:16.510Z,2.20
2022-07-30T16:45:47.181Z,4.03
2022-07-30T16:48:14.324Z,3.30
2022-07-30T16:50:41.492Z,3.80
2022-07-30T16:53:13.717Z,4.67
2022-07-30T16:55:41.810Z,6.53
2022-07-30T16:58:08.965Z,2.97
2022-07-30T17:00:36.123Z,5.13
2022-07-30T17:03:03.393Z,3.70
2022-07-30T17:05:30.557Z,3.10
2022-07-30T17:07:57.717Z,2.57
2022-07-30T17:10:27.250Z,2.87
2022-07-30T17:12:57.142Z,2.50
2022-07-30T17:15:32.709Z,5.10
2022-07-30T17:18:00.369Z,2.40
2022-07-30T17:20:27.492Z,2.10
2022-07-30T17:22:54.679Z,3.47
2022-07-30T17:25:21.838Z,3.17
2022-07-30T17:27:50.306Z,2.80
2022-07-30T17:30:17.467Z,1.73
2022-07-30T17:32:44.600Z,2.30
2022-07-30T17:35:13.957Z,3.50
2022-07-30T17:37:41.289Z,3.33
2022-07-30T17:40:28.144Z,2.63
2022-07-30T17:42:57.788Z,6.00
2022-07-30T17:45:25.394Z,3.70
2022-07-30T17:47:52.509Z,4.40
2022-07-30T17:50:19.653Z,3.40
2022-07-30T17:52:46.818Z,3.13
2022-07-30T17:55:13.978Z,5.37
2022-07-30T17:57:41.159Z,6.93
2022-07-30T18:00:10.417Z,3.67
2022-07-30T18:02:37.556Z,2.87
2022-07-30T18:05:04.978Z,4.80
2022-07-30T18:07:32.141Z,3.10
2022-07-30T18:09:59.309Z,2.80
2022-07-30T18:12:26.428Z,3.53
2022-07-30T18:14:53.671Z,3.87
2022-07-30T18:17:22.134Z,3.67
2022-07-30T18:19:49.295Z,2.43
2022-07-30T18:22:29.558Z,4.93
2022-07-30T18:24:58.965Z,6.53
2022-07-30T18:27:26.104Z,2.33
2022-07-30T18:29:53.235Z,4.13
2022-07-30T18:32:21.727Z,3.33
2022-07-30T18:34:48.887Z,2.40
2022-07-30T18:37:16.031Z,6.30
2022-07-30T18:39:43.198Z,2.77
2022-07-30T18:42:10.391Z,2.40
2022-07-30T18:44:37.541Z,2.20
2022-07-30T18:47:04.770Z,5.37
2022-07-30T18:49:37.213Z,5.30
2022-07-30T18:52:05.879Z,3.80
2022-07-30T18:54:33.446Z,2.23
2022-07-30T18:57:00.678Z,6.93
2022-07-30T18:59:27.780Z,2.97
2022-07-30T19:01:54.955Z,5.73
2022-07-30T19:04:22.101Z,2.93
2022-07-30T19:06:50.610Z,4.80
2022-07-30T19:09:18.260Z,3.60
2022-07-30T19:11:45.871Z,2.27
2022-07-30T19:14:13.159Z,4.50
2022-07-30T19:16:40.816Z,3.90
2022-07-30T19:19:08.276Z,5.10
2022-07-30T19:21:35.662Z,3.83
2022-07-30T19:24:04.419Z,5.40
2022-07-30T19:26:31.736Z,5.20
2022-07-30T19:28:59.123Z,4.63
2022-07-30T19:31:26.361Z,3.90
2022-07-30T19:33:53.534Z,3.90
2022-07-30T19:36:20.691Z,3.87
2022-07-30T19:38:47.892Z,3.33
2022-07-30T19:41:16.369Z,3.17
2022-07-30T19:43:43.558Z,3.30
2022-07-30T19:46:24.988Z,3.10
2022-07-30T19:48:52.249Z,4.33
2022-07-30T19:51:20.454Z,3.00
2022-07-30T19:53:48.375Z,3.80
2022-07-30T19:56:16.865Z,3.70
2022-07-30T19:58:46.579Z,4.70
2022-07-30T20:01:14.450Z,2.83
2022-07-30T20:03:41.685Z,3.70
2022-07-30T20:06:14.808Z,3.37
2022-07-30T20:08:44.924Z,8.83
2022-07-30T20:11:20.860Z,7.13
2022-07-30T20:14:01.025Z,4.27
2022-07-30T20:16:28.155Z,3.23
2022-07-30T20:18:55.289Z,3.77
2022-07-30T20:21:57.116Z,2.97
2022-07-30T20:24:09.808Z,4.27
2022-07-30T20:26:37.250Z,3.00
2022-07-30T20:29:09.153Z,3.33
2022-07-30T20:31:46.523Z,9.17
2022-07-30T20:34:18.078Z,3.37
2022-07-30T20:36:45.394Z,2.93
2022-07-30T20:39:13.388Z,5.00
2022-07-30T20:41:45.479Z,4.20
2022-07-30T20:44:23.079Z,4.37
2022-07-30T20:46:52.685Z,3.50
2022-07-30T20:49:24.090Z,2.87
2022-07-30T20:52:01.445Z,3.43
2022-07-30T20:54:30.121Z,7.03
2022-07-30T20:56:57.911Z,3.67
2022-07-30T20:59:26.486Z,3.37
2022-07-30T21:01:53.714Z,2.90
2022-07-30T21:04:25.481Z,5.00
2022-07-30T21:06:53.057Z,3.13
2022-07-30T21:09:20.530Z,5.40
2022-07-30T21:11:50.232Z,7.80
2022-07-30T21:14:18.384Z,4.30
2022-07-30T21:16:48.382Z,2.63
2022-07-30T21:19:15.682Z,3.30
2022-07-30T21:21:48.231Z,3.13
2022-07-30T21:24:16.425Z,3.10
2022-07-30T21:26:44.740Z,3.33
2022-07-30T21:29:12.865Z,7.93
2022-07-30T21:32:01.241Z,3.30
2022-07-30T21:34:35.870Z,3.33
2022-07-30T21:37:07.668Z,5.63
2022-07-30T21:39:39.743Z,4.60
2022-07-30T21:42:07.804Z,5.73
2022-07-30T21:44:34.950Z,5.50
2022-07-30T21:47:02.168Z,5.03
2022-07-30T21:49:31.654Z,3.40
2022-07-30T21:51:58.927Z,5.73
2022-07-30T21:54:29.361Z,3.90
2022-07-30T21:56:59.414Z,4.40
2022-07-30T21:59:27.537Z,5.17
2022-07-30T22:01:55.322Z,4.30
2022-07-30T22:04:22.559Z,4.63
2022-07-30T22:06:51.077Z,7.07
2022-07-30T22:09:32.995Z,4.53
2022-07-30T22:12:01.170Z,4.03
2022-07-30T22:14:29.133Z,2.70
2022-07-30T22:16:56.529Z,4.30
2022-07-30T22:19:26.004Z,3.60
2022-07-30T22:21:54.534Z,4.50
2022-07-30T22:24:29.893Z,3.20
2022-07-30T22:27:01.279Z,4.73
2022-07-30T22:29:34.219Z,12.07
2022-07-30T22:32:02.361Z,7.93
2022-07-30T22:34:29.835Z,31.70
2022-07-30T22:36:58.334Z,29.47
2022-07-30T22:39:31.904Z,37.60
2022-07-30T22:42:12.941Z,33.63
2022-07-30T22:44:45.652Z,25.57
2022-07-30T22:47:17.864Z,15.57
2022-07-30T22:49:50.395Z,12.37
2022-07-30T22:52:26.991Z,12.67
2022-07-30T22:54:57.053Z,12.30
2022-07-30T22:57:29.353Z,9.50
2022-07-30T23:00:05.754Z,14.67
2022-07-30T23:02:32.934Z,8.30
2022-07-30T23:05:00.055Z,12.03
2022-07-30T23:07:39.501Z,10.97
2022-07-30T23:10:16.909Z,12.93
2022-07-30T23:12:55.103Z,11.63
2022-07-30T23:15:22.462Z,7.70
2022-07-30T23:17:49.614Z,10.00
2022-07-30T23:20:18.454Z,7.50
2022-07-30T23:22:46.935Z,7.70
2022-07-30T23:25:14.431Z,6.90
2022-07-30T23:27:41.922Z,8.00
2022-07-30T23:30:09.863Z,8.07
2022-07-30T23:32:37.033Z,5.70
2022-07-30T23:35:04.498Z,6.80
2022-07-30T23:37:38.112Z,7.20
2022-07-30T23:40:17.273Z,8.70
2022-07-30T23:42:44.461Z,5.00
2022-07-30T23:45:11.771Z,8.40
2022-07-30T23:47:58.010Z,6.00
2022-07-30T23:50:26.112Z,9.57
2022-07-30T23:52:53.321Z,7.07
2022-07-30T23:55:21.943Z,5.27
2022-07-30T23:57:49.083Z,5.93
